| time (UTC) | temp C | wind direction | speed KPH | gust KPH | rain 1hr cm | rain 24hr cm | rain mn cm | humidity % | barometer mb |
| 20260507064738 | 15 | 71 | 1.6 | 9.7 | 0.00 | 0.20 | 0.00 | 86 | 1014.8 |
| 20260507063237 | 13 | 72 | 4.8 | 9.7 | 0.00 | 0.20 | 0.00 | 90 | 1014.7 |
| 20260507061738 | 12 | 92 | 3.2 | 9.7 | 0.00 | 0.23 | 0.00 | 92 | 1014.5 |
| 20260507060237 | 12 | 83 | 4.8 | 14.5 | 0.00 | 0.23 | 0.00 | 94 | 1014.4 |
| 20260507054738 | 11 | 49 | 14.5 | 24.1 | 0.00 | 0.33 | 0.00 | 96 | 1014.0 |
| 20260507053238 | 11 | 60 | 9.7 | 14.5 | 0.00 | 0.48 | 0.00 | 95 | 1014.1 |
| 20260507051738 | 10 | 59 | 16.1 | 24.1 | 0.00 | 0.71 | 0.00 | 96 | 1014.1 |
| 20260507050237 | 10 | 52 | 9.7 | 20.9 | 0.00 | 0.94 | 0.00 | 96 | 1014.0 |
| 20260507044737 | 10 | 54 | 9.7 | 14.5 | 0.00 | 2.11 | 0.00 | 97 | 1013.7 |
| 20260507043237 | 11 | 155 | 3.2 | 9.7 | 0.00 | 3.10 | 0.00 | 97 | 1013.7 |
| 20260507041736 | 11 | 157 | 0.0 | 0.0 | 0.00 | 3.76 | 0.00 | 97 | 1013.5 |
| 20260507040237 | 11 | 157 | 1.6 | 4.8 | 0.00 | 3.99 | 0.00 | 97 | 1013.6 |
| 20260507034736 | 11 | 157 | 3.2 | 9.7 | 0.00 | 3.99 | 0.00 | 96 | 1013.5 |
| 20260507033236 | 11 | 157 | 1.6 | 4.8 | 0.00 | 4.19 | 0.00 | 96 | 1013.4 |
| 20260507031736 | 11 | 157 | 0.0 | 0.0 | 0.00 | 4.50 | 0.00 | 96 | 1013.4 |
| 20260507030235 | 11 | 157 | 3.2 | 9.7 | 0.00 | 5.16 | 0.00 | 97 | 1013.5 |
| 20260507024736 | 11 | 156 | 3.2 | 9.7 | 0.00 | 6.15 | 0.00 | 97 | 1013.4 |
| 20260507023237 | 11 | 156 | 9.7 | 14.5 | 0.00 | 6.73 | 0.00 | 97 | 1013.7 |
| 20260507021737 | 11 | 156 | 3.2 | 9.7 | 0.00 | 6.96 | 0.00 | 97 | 1013.6 |
| 20260507020236 | 11 | 156 | 8.0 | 14.5 | 0.00 | 6.99 | 0.00 | 97 | 1013.6 |
| 20260507014736 | 11 | 156 | 11.3 | 20.9 | 0.00 | 6.99 | 0.00 | 98 | 1013.6 |
| 20260507013235 | 11 | 156 | 12.9 | 20.9 | 0.00 | 7.09 | 0.00 | 97 | 1013.5 |
| 20260507011735 | 11 | 156 | 12.9 | 20.9 | 0.00 | 7.11 | 0.00 | 97 | 1013.6 |
| 20260507010236 | 11 | 156 | 16.1 | 24.1 | 0.00 | 7.65 | 0.00 | 97 | 1013.5 |
| 20260507004735 | 11 | 156 | 12.9 | 24.1 | 0.00 | 7.92 | 0.00 | 98 | 1013.6 |
| 20260507003236 | 11 | 156 | 14.5 | 24.1 | 0.00 | 8.05 | 0.00 | 97 | 1013.4 |
| 20260507001736 | 11 | 156 | 20.9 | 29.0 | 0.00 | 8.13 | 0.00 | 97 | 1013.6 |
| 20260507000235 | 11 | 156 | 19.3 | 29.0 | 0.00 | 8.38 | 0.00 | 97 | 1013.4 |
| 20260506234735 | 12 | 156 | 14.5 | 24.1 | 0.00 | 8.66 | 0.00 | 95 | 1013.6 |
| 20260506233236 | 12 | 156 | 9.7 | 20.9 | 0.00 | 8.97 | 0.00 | 94 | 1013.7 |
| 20260506231736 | 12 | 156 | 1.6 | 4.8 | 0.00 | 9.55 | 0.00 | 94 | 1013.5 |
| 20260506230236 | 12 | 156 | 3.2 | 9.7 | 0.00 | 10.01 | 0.00 | 94 | 1013.3 |
| 20260506224735 | 13 | 156 | 9.7 | 20.9 | 0.00 | 10.16 | 0.00 | 94 | 1013.7 |
| 20260506223235 | 13 | 156 | 4.8 | 9.7 | 0.00 | 10.16 | 0.00 | 93 | 1013.4 |
| 20260506221736 | 13 | 156 | 1.6 | 4.8 | 0.00 | 10.16 | 0.00 | 92 | 1013.5 |
| 20260506220236 | 13 | 156 | 8.0 | 14.5 | 0.00 | 10.16 | 0.00 | 91 | 1013.5 |
| 20260506214736 | 13 | 156 | 8.0 | 14.5 | 0.00 | 10.16 | 10.16 | 89 | 1013.4 |
| 20260506213234 | 14 | 156 | 9.7 | 14.5 | 0.00 | 10.16 | 10.16 | 88 | 1013.3 |
| 20260506211735 | 14 | 156 | 0.0 | 4.8 | 0.00 | 10.16 | 10.16 | 88 | 1013.3 |
| 20260506210235 | 14 | 155 | 3.2 | 9.7 | 0.00 | 10.16 | 10.16 | 88 | 1013.2 |
| 20260506204736 | 14 | 156 | 1.6 | 9.7 | 0.00 | 10.62 | 10.16 | 87 | 1013.1 |
| 20260506203235 | 15 | 155 | 3.2 | 9.7 | 0.00 | 10.67 | 10.16 | 86 | 1012.9 |
| 20260506201735 | 15 | 155 | 4.8 | 9.7 | 0.00 | 10.67 | 10.16 | 85 | 1012.7 |
| 20260506200234 | 15 | 156 | 8.0 | 9.7 | 0.00 | 10.67 | 10.16 | 84 | 1012.8 |
| 20260506194736 | 15 | 156 | 4.8 | 9.7 | 0.00 | 10.72 | 10.16 | 83 | 1012.6 |
| 20260506193234 | 15 | 158 | 3.2 | 9.7 | 0.00 | 11.53 | 10.16 | 81 | 1012.6 |
| 20260506191733 | 15 | 228 | 3.2 | 9.7 | 0.00 | 11.96 | 10.16 | 83 | 1012.3 |
| 20260506190234 | 15 | 203 | 0.0 | 4.8 | 0.00 | 12.14 | 10.16 | 83 | 1012.0 |
| 20260506184734 | 15 | 235 | 3.2 | 9.7 | 0.00 | 12.14 | 10.16 | 85 | 1011.7 |
| 20260506183235 | 15 | 246 | 9.7 | 20.9 | 0.00 | 12.14 | 10.16 | 86 | 1011.6 |
| 20260506181734 | 15 | 235 | 4.8 | 9.7 | 0.00 | 12.14 | 10.16 | 84 | 1011.5 |
| 20260506180233 | 16 | 241 | 4.8 | 14.5 | 0.00 | 12.19 | 10.16 | 81 | 1011.4 |
| 20260506174735 | 17 | 236 | 3.2 | 9.7 | 0.00 | 12.19 | 10.16 | 79 | 1011.1 |
| 20260506173235 | 17 | 282 | 8.0 | 14.5 | 0.00 | 12.19 | 10.16 | 77 | 1011.1 |
| 20260506171735 | 17 | 254 | 9.7 | 20.9 | 0.00 | 12.19 | 10.16 | 77 | 1011.1 |
| 20260506170234 | 16 | 258 | 9.7 | 20.9 | 0.00 | 12.19 | 10.16 | 78 | 1011.3 |
| 20260506164734 | 16 | 257 | 9.7 | 20.9 | 0.00 | 12.19 | 10.16 | 78 | 1011.1 |
| 20260506163234 | 17 | 243 | 4.8 | 24.1 | 0.00 | 12.19 | 10.16 | 76 | 1011.1 |
| 20260506161734 | 17 | 245 | 11.3 | 24.1 | 0.00 | 12.19 | 10.16 | 75 | 1011.0 |
| 20260506160234 | 18 | 260 | 12.9 | 20.9 | 0.00 | 12.19 | 10.16 | 73 | 1011.1 |
| 20260506154733 | 18 | 276 | 12.9 | 24.1 | 0.03 | 12.19 | 10.16 | 71 | 1011.1 |
| 20260506153234 | 17 | 281 | 11.3 | 29.0 | 0.03 | 12.19 | 10.16 | 72 | 1011.2 |
| 20260506151732 | 18 | 257 | 22.5 | 38.6 | 0.03 | 12.19 | 10.16 | 71 | 1010.9 |
| 20260506150233 | 17 | 268 | 22.5 | 45.1 | 0.15 | 12.19 | 10.16 | 72 | 1011.2 |
| 20260506144733 | 16 | 287 | 22.5 | 38.6 | 0.13 | 12.14 | 10.13 | 87 | 1010.7 |
| 20260506143233 | 16 | 267 | 11.3 | 20.9 | 0.13 | 12.14 | 10.13 | 91 | 1010.7 |
| 20260506141731 | 16 | 263 | 12.9 | 24.1 | 0.13 | 12.14 | 10.13 | 88 | 1010.8 |
| 20260506140231 | 17 | 257 | 25.7 | 53.1 | 0.00 | 12.04 | 10.01 | 82 | 1010.9 |
| 20260506134731 | 18 | 268 | 24.1 | 57.9 | 0.00 | 12.04 | 10.01 | 78 | 1010.6 |
| 20260506133232 | 18 | 263 | 29.0 | 53.1 | 0.00 | 12.04 | 10.01 | 80 | 1010.8 |
| 20260506131731 | 17 | 210 | 11.3 | 20.9 | 0.00 | 12.06 | 10.01 | 83 | 1011.2 |
| 20260506130232 | 17 | 251 | 9.7 | 20.9 | 0.00 | 12.40 | 10.01 | 83 | 1011.3 |
| 20260506124730 | 17 | 252 | 12.9 | 33.8 | 0.00 | 12.45 | 10.01 | 86 | 1011.5 |
| 20260506123231 | 17 | 265 | 16.1 | 38.6 | 0.00 | 12.47 | 10.01 | 86 | 1011.2 |
| 20260506121730 | 18 | 259 | 20.9 | 38.6 | 0.00 | 12.47 | 10.01 | 84 | 1010.8 |
| 20260506120230 | 18 | 277 | 19.3 | 33.8 | 0.05 | 12.78 | 10.01 | 86 | 1010.6 |
| 20260506114730 | 17 | 263 | 9.7 | 20.9 | 0.05 | 13.06 | 10.01 | 91 | 1010.6 |
| 20260506113230 | 17 | 240 | 16.1 | 33.8 | 0.05 | 14.02 | 10.01 | 95 | 1010.5 |
| 20260506111731 | 16 | 272 | 11.3 | 29.0 | 0.05 | 14.38 | 10.01 | 94 | 1010.5 |
| 20260506110230 | 16 | 256 | 25.7 | 48.3 | 0.00 | 14.48 | 9.96 | 96 | 1010.6 |
| 20260506104730 | 16 | 246 | 29.0 | 62.8 | 0.00 | 14.86 | 9.96 | 99 | 1010.5 |
| 20260506103230 | 16 | 221 | 25.7 | 48.3 | 0.00 | 16.03 | 9.96 | 99 | 1010.6 |
| 20260506101730 | 16 | 237 | 12.9 | 29.0 | 0.00 | 16.13 | 9.96 | 99 | 1010.9 |
| 20260506100228 | 16 | 254 | 19.3 | 38.6 | 0.00 | 16.84 | 9.96 | 99 | 1010.8 |
| 20260506094730 | 16 | 239 | 12.9 | 38.6 | 0.00 | 17.55 | 9.96 | 99 | 1010.9 |
| 20260506093228 | 15 | 225 | 16.1 | 57.9 | 0.00 | 17.83 | 9.96 | 99 | 1011.1 |
| 20260506091729 | 15 | 244 | 12.9 | 33.8 | 0.00 | 17.91 | 9.96 | 99 | 1011.0 |
| 20260506090229 | 15 | 215 | 3.2 | 9.7 | 0.00 | 17.93 | 9.96 | 99 | 1010.8 |
| 20260506084729 | 14 | 166 | 0.0 | 4.8 | 0.00 | 18.16 | 9.96 | 99 | 1010.9 |
| 20260506083229 | 14 | 69 | 9.7 | 14.5 | 0.00 | 18.29 | 9.96 | 99 | 1010.7 |
| 20260506081729 | 15 | 93 | 3.2 | 14.5 | 0.00 | 18.34 | 9.96 | 99 | 1010.8 |
| 20260506080230 | 14 | 142 | 8.0 | 20.9 | 0.00 | 18.34 | 9.96 | 99 | 1010.9 |
| 20260506073228 | 14 | 199 | 11.3 | 24.1 | 0.00 | 18.52 | 9.96 | 99 | 1011.0 |
| 20260506071728 | 13 | 54 | 11.3 | 24.1 | 0.00 | 18.52 | 9.96 | 99 | 1010.7 |
| 20260506070228 | 13 | 106 | 3.2 | 9.7 | 0.03 | 18.52 | 9.96 | 99 | 1010.8 |